sensor_id;sensor_type;location;lat;lon;timestamp;temperature;humidity
55091;DHT22;40985;53.180;5.800;2023-03-01T00:01:48;-0.20;99.90
55091;DHT22;40985;53.180;5.800;2023-03-01T00:04:13;-0.30;99.90
55091;DHT22;40985;53.180;5.800;2023-03-01T00:06:39;-0.20;99.90
55091;DHT22;40985;53.180;5.800;2023-03-01T00:09:05;-0.20;99.90
55091;DHT22;40985;53.180;5.800;2023-03-01T00:11:32;-0.30;99.90
55091;DHT22;40985;53.180;5.800;2023-03-01T00:14:00;-0.10;99.90
55091;DHT22;40985;53.180;5.800;2023-03-01T00:16:30;-0.30;99.90
55091;DHT22;40985;53.180;5.800;2023-03-01T00:18:56;-0.20;99.90
55091;DHT22;40985;53.180;5.800;2023-03-01T00:21:23;-0.20;99.90
55091;DHT22;40985;53.180;5.800;2023-03-01T00:23:49;0.10;99.90
55091;DHT22;40985;53.180;5.800;2023-03-01T00:26:16;-0.10;99.90
55091;DHT22;40985;53.180;5.800;2023-03-01T00:28:43;-0.30;99.90
55091;DHT22;40985;53.180;5.800;2023-03-01T00:31:21;-0.30;99.90
55091;DHT22;40985;53.180;5.800;2023-03-01T00:33:47;-0.40;99.90
55091;DHT22;40985;53.180;5.800;2023-03-01T00:36:14;-0.40;99.90
55091;DHT22;40985;53.180;5.800;2023-03-01T00:38:42;-0.40;99.90
55091;DHT22;40985;53.180;5.800;2023-03-01T00:41:11;-0.50;99.90
55091;DHT22;40985;53.180;5.800;2023-03-01T00:43:38;-0.60;99.90
55091;DHT22;40985;53.180;5.800;2023-03-01T00:46:12;-0.50;99.90
55091;DHT22;40985;53.180;5.800;2023-03-01T00:48:38;-0.40;99.90
55091;DHT22;40985;53.180;5.800;2023-03-01T00:53:35;-0.70;99.90
55091;DHT22;40985;53.180;5.800;2023-03-01T00:56:00;-0.70;99.90
55091;DHT22;40985;53.180;5.800;2023-03-01T00:58:26;-1.00;99.90
55091;DHT22;40985;53.180;5.800;2023-03-01T01:00:52;-1.00;99.90
55091;DHT22;40985;53.180;5.800;2023-03-01T01:03:18;-1.00;99.90
55091;DHT22;40985;53.180;5.800;2023-03-01T01:05:44;-1.20;99.90
55091;DHT22;40985;53.180;5.800;2023-03-01T01:08:10;-1.20;99.90
55091;DHT22;40985;53.180;5.800;2023-03-01T01:10:35;-1.30;99.90
55091;DHT22;40985;53.180;5.800;2023-03-01T01:13:02;-1.30;99.90
55091;DHT22;40985;53.180;5.800;2023-03-01T01:15:27;-1.40;99.90
55091;DHT22;40985;53.180;5.800;2023-03-01T01:17:53;-1.40;99.90
55091;DHT22;40985;53.180;5.800;2023-03-01T01:20:19;-1.50;99.90
55091;DHT22;40985;53.180;5.800;2023-03-01T01:22:44;-1.70;99.90
55091;DHT22;40985;53.180;5.800;2023-03-01T01:25:10;-1.80;99.90
55091;DHT22;40985;53.180;5.800;2023-03-01T01:27:36;-1.70;99.90
55091;DHT22;40985;53.180;5.800;2023-03-01T01:30:03;-1.70;99.90
55091;DHT22;40985;53.180;5.800;2023-03-01T01:32:29;-1.80;99.90
55091;DHT22;40985;53.180;5.800;2023-03-01T01:34:54;-1.70;99.90
55091;DHT22;40985;53.180;5.800;2023-03-01T01:37:20;-1.90;99.90
55091;DHT22;40985;53.180;5.800;2023-03-01T01:39:46;-1.70;99.90
55091;DHT22;40985;53.180;5.800;2023-03-01T01:42:16;-1.90;99.90
55091;DHT22;40985;53.180;5.800;2023-03-01T01:44:44;-1.80;99.90
55091;DHT22;40985;53.180;5.800;2023-03-01T01:47:20;-1.90;99.90
55091;DHT22;40985;53.180;5.800;2023-03-01T01:49:51;-1.80;99.90
55091;DHT22;40985;53.180;5.800;2023-03-01T01:52:20;-1.90;99.90
55091;DHT22;40985;53.180;5.800;2023-03-01T01:57:24;-2.00;99.90
55091;DHT22;40985;53.180;5.800;2023-03-01T01:59:56;-2.10;99.90
55091;DHT22;40985;53.180;5.800;2023-03-01T02:02:23;-2.10;99.90
55091;DHT22;40985;53.180;5.800;2023-03-01T02:04:54;-2.10;99.90
55091;DHT22;40985;53.180;5.800;2023-03-01T02:07:24;-2.10;99.90
55091;DHT22;40985;53.180;5.800;2023-03-01T02:09:52;-1.90;99.90
55091;DHT22;40985;53.180;5.800;2023-03-01T02:12:21;-2.00;99.90
55091;DHT22;40985;53.180;5.800;2023-03-01T02:14:48;-2.20;99.90
55091;DHT22;40985;53.180;5.800;2023-03-01T02:17:15;-2.10;99.90
55091;DHT22;40985;53.180;5.800;2023-03-01T02:22:40;-2.00;99.90
55091;DHT22;40985;53.180;5.800;2023-03-01T02:30:24;-2.20;99.90
55091;DHT22;40985;53.180;5.800;2023-03-01T02:32:51;-2.20;99.90
55091;DHT22;40985;53.180;5.800;2023-03-01T02:35:19;-2.20;99.90
55091;DHT22;40985;53.180;5.800;2023-03-01T02:37:45;-2.20;99.90
55091;DHT22;40985;53.180;5.800;2023-03-01T02:40:16;-2.30;99.90
55091;DHT22;40985;53.180;5.800;2023-03-01T02:42:57;-2.30;99.90
55091;DHT22;40985;53.180;5.800;2023-03-01T02:45:24;-2.30;99.90
55091;DHT22;40985;53.180;5.800;2023-03-01T02:47:50;-2.20;99.90
55091;DHT22;40985;53.180;5.800;2023-03-01T02:53:13;-2.20;99.90
55091;DHT22;40985;53.180;5.800;2023-03-01T02:55:41;-2.30;99.90
55091;DHT22;40985;53.180;5.800;2023-03-01T02:58:07;-2.30;99.90
55091;DHT22;40985;53.180;5.800;2023-03-01T03:00:39;-2.20;99.90
55091;DHT22;40985;53.180;5.800;2023-03-01T03:03:17;-2.30;99.90
55091;DHT22;40985;53.180;5.800;2023-03-01T03:05:44;-2.10;99.90
55091;DHT22;40985;53.180;5.800;2023-03-01T03:08:10;-2.20;99.90
55091;DHT22;40985;53.180;5.800;2023-03-01T03:10:39;-2.20;99.90
55091;DHT22;40985;53.180;5.800;2023-03-01T03:13:08;-2.10;99.90
55091;DHT22;40985;53.180;5.800;2023-03-01T03:15:35;-2.10;99.90
55091;DHT22;40985;53.180;5.800;2023-03-01T03:18:03;-2.00;99.90
55091;DHT22;40985;53.180;5.800;2023-03-01T03:42:46;-2.00;99.90
55091;DHT22;40985;53.180;5.800;2023-03-01T03:45:12;-2.20;99.90
55091;DHT22;40985;53.180;5.800;2023-03-01T03:47:38;-2.20;99.90
55091;DHT22;40985;53.180;5.800;2023-03-01T03:50:03;-2.30;99.90
55091;DHT22;40985;53.180;5.800;2023-03-01T03:52:29;-2.10;99.90
55091;DHT22;40985;53.180;5.800;2023-03-01T03:54:55;-2.10;99.90
55091;DHT22;40985;53.180;5.800;2023-03-01T03:57:20;-2.30;99.90
55091;DHT22;40985;53.180;5.800;2023-03-01T03:59:48;-2.20;99.90
55091;DHT22;40985;53.180;5.800;2023-03-01T04:02:13;-2.30;99.90
55091;DHT22;40985;53.180;5.800;2023-03-01T04:04:49;-2.20;99.90
55091;DHT22;40985;53.180;5.800;2023-03-01T04:07:16;-2.20;99.90
55091;DHT22;40985;53.180;5.800;2023-03-01T04:09:43;-2.20;99.90
55091;DHT22;40985;53.180;5.800;2023-03-01T04:12:09;-2.20;99.90
55091;DHT22;40985;53.180;5.800;2023-03-01T04:14:35;-2.20;99.90
55091;DHT22;40985;53.180;5.800;2023-03-01T04:17:00;-2.20;99.90
55091;DHT22;40985;53.180;5.800;2023-03-01T04:19:26;-2.10;99.90
55091;DHT22;40985;53.180;5.800;2023-03-01T04:21:53;-2.20;99.90
55091;DHT22;40985;53.180;5.800;2023-03-01T04:24:19;-2.10;99.90
55091;DHT22;40985;53.180;5.800;2023-03-01T04:26:44;-2.10;99.90
55091;DHT22;40985;53.180;5.800;2023-03-01T04:29:10;-2.10;99.90
55091;DHT22;40985;53.180;5.800;2023-03-01T04:31:36;-2.20;99.90
55091;DHT22;40985;53.180;5.800;2023-03-01T04:34:02;-2.10;99.90
55091;DHT22;40985;53.180;5.800;2023-03-01T04:36:28;-2.10;99.90
55091;DHT22;40985;53.180;5.800;2023-03-01T04:38:55;-2.00;99.90
55091;DHT22;40985;53.180;5.800;2023-03-01T04:41:23;-2.20;99.90
55091;DHT22;40985;53.180;5.800;2023-03-01T04:43:49;-2.20;99.90
55091;DHT22;40985;53.180;5.800;2023-03-01T04:46:17;-2.10;99.90
55091;DHT22;40985;53.180;5.800;2023-03-01T04:48:44;-2.00;99.90
55091;DHT22;40985;53.180;5.800;2023-03-01T04:51:10;-2.10;99.90
55091;DHT22;40985;53.180;5.800;2023-03-01T04:53:39;-2.00;99.90
55091;DHT22;40985;53.180;5.800;2023-03-01T04:56:06;-2.00;99.90
55091;DHT22;40985;53.180;5.800;2023-03-01T04:58:32;-2.00;99.90
55091;DHT22;40985;53.180;5.800;2023-03-01T05:00:58;-2.10;99.90
55091;DHT22;40985;53.180;5.800;2023-03-01T05:03:24;-2.10;99.90
55091;DHT22;40985;53.180;5.800;2023-03-01T05:05:52;-2.00;99.90
55091;DHT22;40985;53.180;5.800;2023-03-01T05:08:18;-2.10;99.90
55091;DHT22;40985;53.180;5.800;2023-03-01T05:10:50;-2.20;99.90
55091;DHT22;40985;53.180;5.800;2023-03-01T05:13:17;-2.10;99.90
55091;DHT22;40985;53.180;5.800;2023-03-01T05:15:54;-2.30;99.90
55091;DHT22;40985;53.180;5.800;2023-03-01T05:18:20;-2.30;99.90
55091;DHT22;40985;53.180;5.800;2023-03-01T05:20:46;-2.30;99.90
55091;DHT22;40985;53.180;5.800;2023-03-01T05:23:12;-2.40;99.90
55091;DHT22;40985;53.180;5.800;2023-03-01T05:25:38;-2.30;99.90
55091;DHT22;40985;53.180;5.800;2023-03-01T05:28:07;-2.40;99.90
55091;DHT22;40985;53.180;5.800;2023-03-01T05:30:35;-2.30;99.90
55091;DHT22;40985;53.180;5.800;2023-03-01T05:33:01;-2.40;99.90
55091;DHT22;40985;53.180;5.800;2023-03-01T05:35:27;-2.30;99.90
55091;DHT22;40985;53.180;5.800;2023-03-01T05:37:53;-2.40;99.90
55091;DHT22;40985;53.180;5.800;2023-03-01T05:40:22;-2.50;99.90
55091;DHT22;40985;53.180;5.800;2023-03-01T05:42:54;-2.00;99.90
55091;DHT22;40985;53.180;5.800;2023-03-01T05:45:21;-2.50;99.90
55091;DHT22;40985;53.180;5.800;2023-03-01T05:47:48;-2.40;99.90
55091;DHT22;40985;53.180;5.800;2023-03-01T05:50:20;-2.40;99.90
55091;DHT22;40985;53.180;5.800;2023-03-01T05:52:50;-2.40;99.90
55091;DHT22;40985;53.180;5.800;2023-03-01T05:55:18;-2.50;99.90
55091;DHT22;40985;53.180;5.800;2023-03-01T05:57:44;-2.50;99.90
55091;DHT22;40985;53.180;5.800;2023-03-01T06:00:11;-2.50;99.90
55091;DHT22;40985;53.180;5.800;2023-03-01T06:02:37;-2.50;99.90
55091;DHT22;40985;53.180;5.800;2023-03-01T06:05:05;-2.50;99.90
55091;DHT22;40985;53.180;5.800;2023-03-01T06:07:32;-2.70;99.90
55091;DHT22;40985;53.180;5.800;2023-03-01T06:09:57;-2.60;99.90
55091;DHT22;40985;53.180;5.800;2023-03-01T06:12:23;-2.60;99.90
55091;DHT22;40985;53.180;5.800;2023-03-01T06:14:48;-2.60;99.90
55091;DHT22;40985;53.180;5.800;2023-03-01T06:17:14;-2.70;99.90
55091;DHT22;40985;53.180;5.800;2023-03-01T06:19:40;-2.60;99.90
55091;DHT22;40985;53.180;5.800;2023-03-01T06:22:06;-2.70;99.90
55091;DHT22;40985;53.180;5.800;2023-03-01T06:24:31;-2.70;99.90
55091;DHT22;40985;53.180;5.800;2023-03-01T06:26:57;-2.80;99.90
55091;DHT22;40985;53.180;5.800;2023-03-01T06:29:23;-2.80;99.90
55091;DHT22;40985;53.180;5.800;2023-03-01T06:31:49;-2.70;99.90
55091;DHT22;40985;53.180;5.800;2023-03-01T06:34:15;-2.70;99.90
55091;DHT22;40985;53.180;5.800;2023-03-01T06:36:43;-2.90;99.90
55091;DHT22;40985;53.180;5.800;2023-03-01T06:39:09;-2.90;99.90
55091;DHT22;40985;53.180;5.800;2023-03-01T06:41:35;-2.80;99.90
55091;DHT22;40985;53.180;5.800;2023-03-01T06:44:01;-2.90;99.90
55091;DHT22;40985;53.180;5.800;2023-03-01T06:46:28;-2.80;99.90
55091;DHT22;40985;53.180;5.800;2023-03-01T06:48:53;-2.90;99.90
55091;DHT22;40985;53.180;5.800;2023-03-01T06:51:19;-2.90;99.90
55091;DHT22;40985;53.180;5.800;2023-03-01T06:53:46;-2.80;99.90
55091;DHT22;40985;53.180;5.800;2023-03-01T06:56:12;-3.00;99.90
55091;DHT22;40985;53.180;5.800;2023-03-01T06:58:37;-2.80;99.90
55091;DHT22;40985;53.180;5.800;2023-03-01T07:01:07;-2.90;99.90
55091;DHT22;40985;53.180;5.800;2023-03-01T07:03:33;-2.70;99.90
55091;DHT22;40985;53.180;5.800;2023-03-01T07:05:59;-2.90;99.90
55091;DHT22;40985;53.180;5.800;2023-03-01T07:08:24;-2.70;99.90
55091;DHT22;40985;53.180;5.800;2023-03-01T07:10:58;-2.70;99.90
55091;DHT22;40985;53.180;5.800;2023-03-01T07:13:24;-2.80;99.90
55091;DHT22;40985;53.180;5.800;2023-03-01T07:15:50;-2.60;99.90
55091;DHT22;40985;53.180;5.800;2023-03-01T07:18:15;-2.70;99.90
55091;DHT22;40985;53.180;5.800;2023-03-01T07:20:41;-2.70;99.90
55091;DHT22;40985;53.180;5.800;2023-03-01T07:23:06;-2.70;99.90
55091;DHT22;40985;53.180;5.800;2023-03-01T07:25:32;-2.60;99.90
55091;DHT22;40985;53.180;5.800;2023-03-01T07:27:58;-2.70;99.90
55091;DHT22;40985;53.180;5.800;2023-03-01T07:30:27;-2.60;99.90
55091;DHT22;40985;53.180;5.800;2023-03-01T07:32:55;-2.60;99.90
55091;DHT22;40985;53.180;5.800;2023-03-01T07:35:22;-2.40;99.90
55091;DHT22;40985;53.180;5.800;2023-03-01T07:37:48;-2.50;99.90
55091;DHT22;40985;53.180;5.800;2023-03-01T07:40:14;-2.60;99.90
55091;DHT22;40985;53.180;5.800;2023-03-01T07:42:39;-2.60;99.90
55091;DHT22;40985;53.180;5.800;2023-03-01T07:45:06;-2.60;99.90
55091;DHT22;40985;53.180;5.800;2023-03-01T07:47:35;-2.50;99.90
55091;DHT22;40985;53.180;5.800;2023-03-01T07:50:00;-2.40;99.90
55091;DHT22;40985;53.180;5.800;2023-03-01T07:52:29;-2.40;99.90
55091;DHT22;40985;53.180;5.800;2023-03-01T07:54:56;-2.20;99.90
55091;DHT22;40985;53.180;5.800;2023-03-01T07:57:22;-2.30;99.90
55091;DHT22;40985;53.180;5.800;2023-03-01T07:59:48;-2.10;99.90
55091;DHT22;40985;53.180;5.800;2023-03-01T08:02:14;-2.00;99.90
55091;DHT22;40985;53.180;5.800;2023-03-01T08:04:41;-2.00;99.90
55091;DHT22;40985;53.180;5.800;2023-03-01T08:07:07;-2.00;99.90
55091;DHT22;40985;53.180;5.800;2023-03-01T08:09:35;-1.90;99.90
55091;DHT22;40985;53.180;5.800;2023-03-01T08:12:02;-1.70;99.90
55091;DHT22;40985;53.180;5.800;2023-03-01T08:14:28;-1.70;99.90
55091;DHT22;40985;53.180;5.800;2023-03-01T08:16:57;-1.70;99.90
55091;DHT22;40985;53.180;5.800;2023-03-01T08:19:23;-1.60;99.90
55091;DHT22;40985;53.180;5.800;2023-03-01T08:21:49;-1.50;99.90
55091;DHT22;40985;53.180;5.800;2023-03-01T08:24:16;-1.50;99.90
55091;DHT22;40985;53.180;5.800;2023-03-01T08:26:50;-1.30;99.90
55091;DHT22;40985;53.180;5.800;2023-03-01T08:29:16;-1.30;99.90
55091;DHT22;40985;53.180;5.800;2023-03-01T08:31:42;-1.20;99.90
55091;DHT22;40985;53.180;5.800;2023-03-01T08:34:11;-1.20;99.90
55091;DHT22;40985;53.180;5.800;2023-03-01T08:36:39;-0.90;99.90
55091;DHT22;40985;53.180;5.800;2023-03-01T08:39:06;-1.00;99.90
55091;DHT22;40985;53.180;5.800;2023-03-01T08:41:32;-0.90;99.90
55091;DHT22;40985;53.180;5.800;2023-03-01T08:43:58;-0.70;99.90
55091;DHT22;40985;53.180;5.800;2023-03-01T08:46:28;-0.70;99.90
55091;DHT22;40985;53.180;5.800;2023-03-01T08:48:54;-0.40;99.90
55091;DHT22;40985;53.180;5.800;2023-03-01T08:51:21;-0.30;99.90
55091;DHT22;40985;53.180;5.800;2023-03-01T08:53:47;-0.30;99.90
55091;DHT22;40985;53.180;5.800;2023-03-01T08:56:17;-0.30;99.90
55091;DHT22;40985;53.180;5.800;2023-03-01T08:58:48;-0.10;99.90
55091;DHT22;40985;53.180;5.800;2023-03-01T09:01:18;-0.10;99.90
55091;DHT22;40985;53.180;5.800;2023-03-01T09:03:44;0.10;99.90
55091;DHT22;40985;53.180;5.800;2023-03-01T09:06:16;0.20;99.90
55091;DHT22;40985;53.180;5.800;2023-03-01T09:08:47;0.20;99.90
55091;DHT22;40985;53.180;5.800;2023-03-01T09:11:16;0.30;99.90
55091;DHT22;40985;53.180;5.800;2023-03-01T09:13:43;0.50;99.90
55091;DHT22;40985;53.180;5.800;2023-03-01T09:16:10;0.60;99.90
55091;DHT22;40985;53.180;5.800;2023-03-01T09:18:36;0.60;99.90
55091;DHT22;40985;53.180;5.800;2023-03-01T09:21:04;0.70;99.90
55091;DHT22;40985;53.180;5.800;2023-03-01T09:23:35;0.90;99.90
55091;DHT22;40985;53.180;5.800;2023-03-01T09:26:02;0.80;99.90
55091;DHT22;40985;53.180;5.800;2023-03-01T09:28:28;1.00;99.90
55091;DHT22;40985;53.180;5.800;2023-03-01T09:30:57;1.10;99.90
55091;DHT22;40985;53.180;5.800;2023-03-01T09:33:23;1.20;99.90
55091;DHT22;40985;53.180;5.800;2023-03-01T09:35:48;1.30;99.90
55091;DHT22;40985;53.180;5.800;2023-03-01T09:38:14;1.40;99.90
55091;DHT22;40985;53.180;5.800;2023-03-01T09:40:43;1.50;99.90
55091;DHT22;40985;53.180;5.800;2023-03-01T09:43:27;1.70;99.90
55091;DHT22;40985;53.180;5.800;2023-03-01T09:46:00;1.70;99.90
55091;DHT22;40985;53.180;5.800;2023-03-01T09:48:37;1.90;99.90
55091;DHT22;40985;53.180;5.800;2023-03-01T09:51:08;1.90;99.90
55091;DHT22;40985;53.180;5.800;2023-03-01T09:53:34;2.10;99.90
55091;DHT22;40985;53.180;5.800;2023-03-01T10:01:46;2.50;99.90
55091;DHT22;40985;53.180;5.800;2023-03-01T10:07:38;2.80;99.90
55091;DHT22;40985;53.180;5.800;2023-03-01T10:10:08;2.90;99.90
55091;DHT22;40985;53.180;5.800;2023-03-01T10:12:41;3.00;99.90
55091;DHT22;40985;53.180;5.800;2023-03-01T10:15:34;3.10;99.90
55091;DHT22;40985;53.180;5.800;2023-03-01T10:18:06;3.20;99.90
55091;DHT22;40985;53.180;5.800;2023-03-01T10:23:16;3.50;99.90
55091;DHT22;40985;53.180;5.800;2023-03-01T10:29:05;3.70;99.90
55091;DHT22;40985;53.180;5.800;2023-03-01T10:34:13;3.90;99.90
55091;DHT22;40985;53.180;5.800;2023-03-01T10:36:40;4.10;99.90
55091;DHT22;40985;53.180;5.800;2023-03-01T10:39:16;4.20;99.90
55091;DHT22;40985;53.180;5.800;2023-03-01T10:42:20;4.30;99.90
55091;DHT22;40985;53.180;5.800;2023-03-01T10:44:49;4.30;99.90
55091;DHT22;40985;53.180;5.800;2023-03-01T10:47:27;4.40;99.90
55091;DHT22;40985;53.180;5.800;2023-03-01T10:50:03;4.40;99.90
55091;DHT22;40985;53.180;5.800;2023-03-01T10:52:37;4.50;99.90
55091;DHT22;40985;53.180;5.800;2023-03-01T10:55:23;4.60;99.90
55091;DHT22;40985;53.180;5.800;2023-03-01T10:57:50;4.80;99.90
55091;DHT22;40985;53.180;5.800;2023-03-01T11:00:31;4.90;99.90
55091;DHT22;40985;53.180;5.800;2023-03-01T11:03:03;5.10;99.90
55091;DHT22;40985;53.180;5.800;2023-03-01T11:05:34;5.10;99.90
55091;DHT22;40985;53.180;5.800;2023-03-01T11:08:02;5.40;99.90
55091;DHT22;40985;53.180;5.800;2023-03-01T11:10:32;5.40;99.90
55091;DHT22;40985;53.180;5.800;2023-03-01T11:13:13;5.50;99.90
55091;DHT22;40985;53.180;5.800;2023-03-01T11:15:40;5.50;99.90
55091;DHT22;40985;53.180;5.800;2023-03-01T11:18:19;5.70;99.90
55091;DHT22;40985;53.180;5.800;2023-03-01T11:20:45;5.60;99.90
55091;DHT22;40985;53.180;5.800;2023-03-01T11:23:12;5.70;99.90
55091;DHT22;40985;53.180;5.800;2023-03-01T11:25:44;5.80;99.90
55091;DHT22;40985;53.180;5.800;2023-03-01T11:28:16;5.80;99.90
55091;DHT22;40985;53.180;5.800;2023-03-01T11:36:26;5.90;99.90
55091;DHT22;40985;53.180;5.800;2023-03-01T11:38:55;6.10;99.90
55091;DHT22;40985;53.180;5.800;2023-03-01T11:41:26;6.10;99.90
55091;DHT22;40985;53.180;5.800;2023-03-01T11:54:59;6.50;99.90
55091;DHT22;40985;53.180;5.800;2023-03-01T11:57:57;6.50;99.90
55091;DHT22;40985;53.180;5.800;2023-03-01T12:11:39;7.00;99.90
55091;DHT22;40985;53.180;5.800;2023-03-01T12:14:31;7.20;99.90
55091;DHT22;40985;53.180;5.800;2023-03-01T12:17:16;7.40;99.90
55091;DHT22;40985;53.180;5.800;2023-03-01T12:25:21;7.20;99.90
55091;DHT22;40985;53.180;5.800;2023-03-01T12:30:43;7.30;99.90
55091;DHT22;40985;53.180;5.800;2023-03-01T12:38:37;7.70;99.90
55091;DHT22;40985;53.180;5.800;2023-03-01T12:43:51;7.80;99.90
55091;DHT22;40985;53.180;5.800;2023-03-01T12:46:28;7.70;99.90
55091;DHT22;40985;53.180;5.800;2023-03-01T12:54:36;7.80;99.90
55091;DHT22;40985;53.180;5.800;2023-03-01T12:57:24;7.80;99.90
55091;DHT22;40985;53.180;5.800;2023-03-01T13:00:30;7.90;99.90
55091;DHT22;40985;53.180;5.800;2023-03-01T13:05:42;7.80;99.90
55091;DHT22;40985;53.180;5.800;2023-03-01T13:08:31;7.90;99.90
55091;DHT22;40985;53.180;5.800;2023-03-01T13:11:02;8.00;99.90
55091;DHT22;40985;53.180;5.800;2023-03-01T13:13:29;7.90;99.90
55091;DHT22;40985;53.180;5.800;2023-03-01T13:15:56;8.00;99.90
55091;DHT22;40985;53.180;5.800;2023-03-01T13:20:53;8.10;99.90
55091;DHT22;40985;53.180;5.800;2023-03-01T13:26:08;8.40;99.90
55091;DHT22;40985;53.180;5.800;2023-03-01T13:34:01;8.50;99.90
55091;DHT22;40985;53.180;5.800;2023-03-01T13:39:00;8.60;99.90
55091;DHT22;40985;53.180;5.800;2023-03-01T13:49:57;8.40;99.90
55091;DHT22;40985;53.180;5.800;2023-03-01T13:52:37;8.40;99.90
55091;DHT22;40985;53.180;5.800;2023-03-01T13:55:21;8.60;99.90
55091;DHT22;40985;53.180;5.800;2023-03-01T13:57:57;8.20;99.90
55091;DHT22;40985;53.180;5.800;2023-03-01T14:03:05;8.40;99.90
55091;DHT22;40985;53.180;5.800;2023-03-01T14:05:34;8.30;99.90
55091;DHT22;40985;53.180;5.800;2023-03-01T14:08:03;8.30;99.90
55091;DHT22;40985;53.180;5.800;2023-03-01T14:10:39;8.40;99.90
55091;DHT22;40985;53.180;5.800;2023-03-01T14:18:52;8.40;99.90
55091;DHT22;40985;53.180;5.800;2023-03-01T14:21:22;8.50;99.90
55091;DHT22;40985;53.180;5.800;2023-03-01T14:23:48;8.40;99.90
55091;DHT22;40985;53.180;5.800;2023-03-01T14:26:21;8.40;99.90
55091;DHT22;40985;53.180;5.800;2023-03-01T14:28:48;8.40;99.90
55091;DHT22;40985;53.180;5.800;2023-03-01T14:31:43;8.40;99.90
55091;DHT22;40985;53.180;5.800;2023-03-01T14:34:22;8.20;99.90
55091;DHT22;40985;53.180;5.800;2023-03-01T14:36:48;8.10;99.90
55091;DHT22;40985;53.180;5.800;2023-03-01T14:39:19;8.00;99.90
55091;DHT22;40985;53.180;5.800;2023-03-01T14:41:46;7.90;99.90
55091;DHT22;40985;53.180;5.800;2023-03-01T14:44:16;8.00;99.90
55091;DHT22;40985;53.180;5.800;2023-03-01T14:46:45;8.10;99.90
55091;DHT22;40985;53.180;5.800;2023-03-01T14:49:24;7.90;99.90
55091;DHT22;40985;53.180;5.800;2023-03-01T14:52:03;7.70;99.90
55091;DHT22;40985;53.180;5.800;2023-03-01T14:57:01;7.70;99.90
55091;DHT22;40985;53.180;5.800;2023-03-01T14:59:27;7.70;99.90
55091;DHT22;40985;53.180;5.800;2023-03-01T15:01:56;7.70;99.90
55091;DHT22;40985;53.180;5.800;2023-03-01T15:04:24;7.80;99.90
55091;DHT22;40985;53.180;5.800;2023-03-01T15:06:52;7.80;99.90
55091;DHT22;40985;53.180;5.800;2023-03-01T15:09:19;7.80;99.90
55091;DHT22;40985;53.180;5.800;2023-03-01T15:11:46;7.70;99.90
55091;DHT22;40985;53.180;5.800;2023-03-01T15:14:39;7.60;99.90
55091;DHT22;40985;53.180;5.800;2023-03-01T15:17:26;7.60;99.90
55091;DHT22;40985;53.180;5.800;2023-03-01T15:19:54;7.60;99.90
55091;DHT22;40985;53.180;5.800;2023-03-01T15:22:20;7.60;99.90
55091;DHT22;40985;53.180;5.800;2023-03-01T15:24:50;7.40;99.90
55091;DHT22;40985;53.180;5.800;2023-03-01T15:27:18;7.30;99.90
55091;DHT22;40985;53.180;5.800;2023-03-01T15:29:54;7.30;99.90
55091;DHT22;40985;53.180;5.800;2023-03-01T15:34:49;7.30;99.90
55091;DHT22;40985;53.180;5.800;2023-03-01T15:37:36;7.20;99.90
55091;DHT22;40985;53.180;5.800;2023-03-01T15:40:25;7.20;99.90
55091;DHT22;40985;53.180;5.800;2023-03-01T15:43:01;7.10;99.90
55091;DHT22;40985;53.180;5.800;2023-03-01T15:45:29;7.10;99.90
55091;DHT22;40985;53.180;5.800;2023-03-01T15:47:57;7.00;99.90
55091;DHT22;40985;53.180;5.800;2023-03-01T15:50:34;7.00;99.90
55091;DHT22;40985;53.180;5.800;2023-03-01T15:53:05;6.80;99.90
55091;DHT22;40985;53.180;5.800;2023-03-01T15:55:34;6.80;99.90
55091;DHT22;40985;53.180;5.800;2023-03-01T15:58:05;6.80;99.90
55091;DHT22;40985;53.180;5.800;2023-03-01T16:00:35;6.70;99.90
55091;DHT22;40985;53.180;5.800;2023-03-01T16:03:01;6.50;99.90
55091;DHT22;40985;53.180;5.800;2023-03-01T16:05:29;6.50;99.90
55091;DHT22;40985;53.180;5.800;2023-03-01T16:07:56;6.50;99.90
55091;DHT22;40985;53.180;5.800;2023-03-01T16:10:22;6.50;99.90
55091;DHT22;40985;53.180;5.800;2023-03-01T16:12:49;6.50;99.90
55091;DHT22;40985;53.180;5.800;2023-03-01T16:15:23;6.40;99.90
55091;DHT22;40985;53.180;5.800;2023-03-01T16:17:51;6.40;99.90
55091;DHT22;40985;53.180;5.800;2023-03-01T16:20:18;6.30;99.90
55091;DHT22;40985;53.180;5.800;2023-03-01T16:22:45;6.30;99.90
55091;DHT22;40985;53.180;5.800;2023-03-01T16:25:13;6.30;99.90
55091;DHT22;40985;53.180;5.800;2023-03-01T16:27:42;6.20;99.90
55091;DHT22;40985;53.180;5.800;2023-03-01T16:30:10;6.10;99.90
55091;DHT22;40985;53.180;5.800;2023-03-01T16:32:43;6.10;99.90
55091;DHT22;40985;53.180;5.800;2023-03-01T16:35:13;6.10;99.90
55091;DHT22;40985;53.180;5.800;2023-03-01T16:37:39;5.90;99.90
55091;DHT22;40985;53.180;5.800;2023-03-01T16:40:07;5.80;99.90
55091;DHT22;40985;53.180;5.800;2023-03-01T16:42:37;5.70;99.90
55091;DHT22;40985;53.180;5.800;2023-03-01T16:45:04;5.70;99.90
55091;DHT22;40985;53.180;5.800;2023-03-01T16:47:29;5.60;99.90
55091;DHT22;40985;53.180;5.800;2023-03-01T16:49:55;5.50;99.90
55091;DHT22;40985;53.180;5.800;2023-03-01T16:52:22;5.40;99.90
55091;DHT22;40985;53.180;5.800;2023-03-01T16:54:48;5.30;99.90
55091;DHT22;40985;53.180;5.800;2023-03-01T16:57:14;5.30;99.90
55091;DHT22;40985;53.180;5.800;2023-03-01T16:59:40;5.20;99.90
55091;DHT22;40985;53.180;5.800;2023-03-01T17:02:08;5.20;99.90
55091;DHT22;40985;53.180;5.800;2023-03-01T17:04:35;5.20;99.90
55091;DHT22;40985;53.180;5.800;2023-03-01T17:07:00;5.10;99.90
55091;DHT22;40985;53.180;5.800;2023-03-01T17:09:26;5.00;99.90
55091;DHT22;40985;53.180;5.800;2023-03-01T17:11:52;4.90;99.90
55091;DHT22;40985;53.180;5.800;2023-03-01T17:14:17;4.90;99.90
55091;DHT22;40985;53.180;5.800;2023-03-01T17:16:43;4.80;99.90
55091;DHT22;40985;53.180;5.800;2023-03-01T17:19:10;4.80;99.90
55091;DHT22;40985;53.180;5.800;2023-03-01T17:21:36;4.70;99.90
55091;DHT22;40985;53.180;5.800;2023-03-01T17:24:03;4.60;99.90
55091;DHT22;40985;53.180;5.800;2023-03-01T17:26:29;4.60;99.90
55091;DHT22;40985;53.180;5.800;2023-03-01T17:28:55;4.50;99.90
55091;DHT22;40985;53.180;5.800;2023-03-01T17:31:21;4.60;99.90
55091;DHT22;40985;53.180;5.800;2023-03-01T17:33:47;4.50;99.90
55091;DHT22;40985;53.180;5.800;2023-03-01T17:36:14;4.40;99.90
55091;DHT22;40985;53.180;5.800;2023-03-01T17:38:40;4.40;99.90
55091;DHT22;40985;53.180;5.800;2023-03-01T17:41:06;4.30;99.90
55091;DHT22;40985;53.180;5.800;2023-03-01T17:43:32;4.30;99.90
55091;DHT22;40985;53.180;5.800;2023-03-01T17:45:59;4.30;99.90
55091;DHT22;40985;53.180;5.800;2023-03-01T17:48:25;4.30;99.90
55091;DHT22;40985;53.180;5.800;2023-03-01T17:50:51;4.20;99.90
55091;DHT22;40985;53.180;5.800;2023-03-01T17:53:17;4.10;99.90
55091;DHT22;40985;53.180;5.800;2023-03-01T17:55:43;4.10;99.90
55091;DHT22;40985;53.180;5.800;2023-03-01T17:58:11;4.10;99.90
55091;DHT22;40985;53.180;5.800;2023-03-01T18:00:38;4.10;99.90
55091;DHT22;40985;53.180;5.800;2023-03-01T18:03:04;4.00;99.90
55091;DHT22;40985;53.180;5.800;2023-03-01T18:05:35;4.10;99.90
55091;DHT22;40985;53.180;5.800;2023-03-01T18:08:02;4.00;99.90
55091;DHT22;40985;53.180;5.800;2023-03-01T18:10:28;4.00;99.90
55091;DHT22;40985;53.180;5.800;2023-03-01T18:12:55;3.90;99.90